createdAt,value
2023-01-23T00:02:09.512Z,21.40
2023-01-23T00:04:36.299Z,20.80
2023-01-23T00:07:03.518Z,21.70
2023-01-23T00:09:30.309Z,22.17
2023-01-23T00:11:57.393Z,22.70
2023-01-23T00:14:24.175Z,21.48
2023-01-23T00:16:50.834Z,21.75
2023-01-23T00:19:17.864Z,22.85
2023-01-23T00:21:44.627Z,24.02
2023-01-23T00:24:12.072Z,22.00
2023-01-23T00:26:38.759Z,23.35
2023-01-23T00:29:05.621Z,22.52
2023-01-23T00:31:35.741Z,22.55
2023-01-23T00:34:06.052Z,23.73
2023-01-23T00:36:35.596Z,22.20
2023-01-23T00:39:04.616Z,24.20
2023-01-23T00:41:31.290Z,23.73
2023-01-23T00:43:57.985Z,22.70
2023-01-23T00:46:24.862Z,21.85
2023-01-23T00:48:52.199Z,23.38
2023-01-23T00:51:19.047Z,24.35
2023-01-23T00:53:46.119Z,24.00
2023-01-23T00:56:13.070Z,25.00
2023-01-23T00:58:42.840Z,24.38
2023-01-23T01:01:12.245Z,23.98
2023-01-23T01:03:39.065Z,25.13
2023-01-23T01:06:06.193Z,24.80
2023-01-23T01:08:33.168Z,22.75
2023-01-23T01:10:59.869Z,25.92
2023-01-23T01:13:27.002Z,24.80
2023-01-23T01:15:54.340Z,24.65
2023-01-23T01:18:22.205Z,25.33
2023-01-23T01:20:49.771Z,25.63
2023-01-23T01:23:16.675Z,25.80
2023-01-23T01:25:43.425Z,25.30
2023-01-23T01:28:10.232Z,24.92
2023-01-23T01:30:37.119Z,26.05
2023-01-23T01:33:04.513Z,25.20
2023-01-23T01:35:31.436Z,25.77
2023-01-23T01:37:58.248Z,26.52
2023-01-23T01:40:29.061Z,27.17
2023-01-23T01:43:04.681Z,26.35
2023-01-23T01:45:56.355Z,26.92
2023-01-23T01:48:26.667Z,25.95
2023-01-23T01:50:54.053Z,24.10
2023-01-23T01:53:25.448Z,25.55
2023-01-23T01:55:52.452Z,27.10
2023-01-23T01:58:19.861Z,26.92
2023-01-23T02:00:46.593Z,27.30
2023-01-23T02:03:13.489Z,26.67
2023-01-23T02:05:45.029Z,26.35
2023-01-23T02:08:20.747Z,25.80
2023-01-23T02:10:47.713Z,24.60
2023-01-23T02:13:39.947Z,24.80
2023-01-23T02:16:21.456Z,23.92
2023-01-23T02:18:53.788Z,25.05
2023-01-23T02:21:25.155Z,25.48
2023-01-23T02:24:20.420Z,25.20
2023-01-23T02:26:47.537Z,25.83
2023-01-23T02:29:15.334Z,25.35
2023-01-23T02:31:46.045Z,24.80
2023-01-23T02:34:14.188Z,25.25
2023-01-23T02:36:44.850Z,25.75
2023-01-23T02:39:16.915Z,25.35
2023-01-23T02:41:46.183Z,24.23
2023-01-23T02:44:18.526Z,24.30
2023-01-23T02:46:45.230Z,24.23
2023-01-23T02:49:12.510Z,22.98
2023-01-23T02:51:39.234Z,25.15
2023-01-23T02:54:06.017Z,23.73
2023-01-23T02:56:33.957Z,23.42
2023-01-23T02:59:19.149Z,24.20
2023-01-23T03:01:46.099Z,23.80
2023-01-23T03:04:12.822Z,24.00
2023-01-23T03:06:39.480Z,22.80
2023-01-23T03:09:15.774Z,23.40
2023-01-23T03:11:44.755Z,22.52
2023-01-23T03:14:17.562Z,22.60
2023-01-23T03:16:49.911Z,22.70
2023-01-23T03:19:23.062Z,22.75
2023-01-23T03:21:51.068Z,23.10
2023-01-23T03:24:19.340Z,22.88
2023-01-23T03:26:47.578Z,23.70
2023-01-23T03:29:38.833Z,23.17
2023-01-23T03:32:06.332Z,22.77
2023-01-23T03:34:33.290Z,22.80
2023-01-23T03:37:01.295Z,22.27
2023-01-23T03:39:46.533Z,23.58
2023-01-23T03:42:13.372Z,22.73
2023-01-23T03:44:40.235Z,23.13
2023-01-23T03:47:07.545Z,23.02
2023-01-23T03:49:34.249Z,24.83
2023-01-23T03:52:00.927Z,22.95
2023-01-23T03:54:27.778Z,24.05
2023-01-23T03:56:54.698Z,23.25
2023-01-23T03:59:21.370Z,23.48
2023-01-23T04:01:48.208Z,23.35
2023-01-23T04:04:15.293Z,23.08
2023-01-23T04:06:42.126Z,23.38
2023-01-23T04:09:08.761Z,23.10
2023-01-23T04:11:35.485Z,23.77
2023-01-23T04:14:02.238Z,22.92
2023-01-23T04:16:29.024Z,21.98
2023-01-23T04:18:55.982Z,24.33
2023-01-23T04:21:22.947Z,23.15
2023-01-23T04:23:49.854Z,23.23
2023-01-23T04:26:16.654Z,23.70
2023-01-23T04:28:43.332Z,21.63
2023-01-23T04:31:10.218Z,24.45
2023-01-23T04:33:36.930Z,23.73
2023-01-23T04:36:06.218Z,23.77
2023-01-23T04:38:33.538Z,24.20
2023-01-23T04:41:00.664Z,24.02
2023-01-23T04:43:27.382Z,24.27
2023-01-23T04:45:54.902Z,24.30
2023-01-23T04:48:22.303Z,23.98
2023-01-23T04:50:49.933Z,23.17
2023-01-23T04:53:17.054Z,25.02
2023-01-23T04:55:46.247Z,24.20
2023-01-23T04:58:12.948Z,23.17
2023-01-23T05:00:39.654Z,24.30
2023-01-23T05:03:06.423Z,23.88
2023-01-23T05:05:33.426Z,24.55
2023-01-23T05:08:00.112Z,24.15
2023-01-23T05:10:27.035Z,23.25
2023-01-23T05:12:53.877Z,23.02
2023-01-23T05:15:21.260Z,22.35
2023-01-23T05:17:49.991Z,22.77
2023-01-23T05:20:17.018Z,24.50
2023-01-23T05:22:52.268Z,24.23
2023-01-23T05:25:29.175Z,23.65
2023-01-23T05:27:55.876Z,22.52
2023-01-23T05:30:23.403Z,23.73
2023-01-23T05:32:50.314Z,23.27
2023-01-23T05:35:17.460Z,23.98
2023-01-23T05:37:47.828Z,24.13
2023-01-23T05:40:14.477Z,23.15
2023-01-23T05:42:41.199Z,23.25
2023-01-23T05:45:08.132Z,23.33
2023-01-23T05:47:35.172Z,24.63
2023-01-23T05:50:01.959Z,24.50
2023-01-23T05:52:28.716Z,23.35
2023-01-23T05:54:55.360Z,23.95
2023-01-23T05:57:22.794Z,24.55
2023-01-23T05:59:49.504Z,24.23
2023-01-23T06:02:16.295Z,24.08
2023-01-23T06:04:43.069Z,24.90
2023-01-23T06:07:18.501Z,24.20
2023-01-23T06:09:45.902Z,24.25
2023-01-23T06:12:12.863Z,24.20
2023-01-23T06:14:39.685Z,25.27
2023-01-23T06:17:06.840Z,25.27
2023-01-23T06:19:33.712Z,25.42
2023-01-23T06:22:00.414Z,29.70
2023-01-23T06:24:27.137Z,43.22
2023-01-23T06:26:53.779Z,30.90
2023-01-23T06:29:20.604Z,25.58
2023-01-23T06:31:47.691Z,25.33
2023-01-23T06:34:15.358Z,24.48
2023-01-23T06:36:42.472Z,25.70
2023-01-23T06:39:13.104Z,25.30
2023-01-23T06:41:39.913Z,25.70
2023-01-23T06:44:07.756Z,26.80
2023-01-23T06:46:34.641Z,24.25
2023-01-23T06:49:04.498Z,27.17
2023-01-23T06:51:33.611Z,25.98
2023-01-23T06:54:00.394Z,24.65
2023-01-23T06:56:27.452Z,25.35
2023-01-23T06:58:54.277Z,26.77
2023-01-23T07:01:21.514Z,25.77
2023-01-23T07:03:48.399Z,27.33
2023-01-23T07:06:15.721Z,26.33
2023-01-23T07:08:42.818Z,27.23
2023-01-23T07:11:10.227Z,26.38
2023-01-23T07:13:37.035Z,32.22
2023-01-23T07:16:04.449Z,38.53
2023-01-23T07:18:32.555Z,32.85
2023-01-23T07:20:59.557Z,27.52
2023-01-23T07:23:26.289Z,27.10
2023-01-23T07:25:59.245Z,26.75
2023-01-23T07:28:25.988Z,25.85
2023-01-23T07:30:52.741Z,26.92
2023-01-23T07:33:19.544Z,27.02
2023-01-23T07:35:46.343Z,26.02
2023-01-23T07:38:12.970Z,27.70
2023-01-23T07:40:42.486Z,28.50
2023-01-23T07:43:09.792Z,27.95
2023-01-23T07:45:37.688Z,29.35
2023-01-23T07:48:04.829Z,27.33
2023-01-23T07:50:31.524Z,26.75
2023-01-23T07:52:58.205Z,24.73
2023-01-23T07:55:25.015Z,25.70
2023-01-23T07:57:51.684Z,25.05
2023-01-23T08:00:18.897Z,26.77
2023-01-23T08:02:45.798Z,24.13
2023-01-23T08:05:12.482Z,25.88
2023-01-23T08:07:39.430Z,25.20
2023-01-23T08:10:07.386Z,25.85
2023-01-23T08:12:34.647Z,24.88
2023-01-23T08:15:01.694Z,24.98
2023-01-23T08:17:28.506Z,24.83
2023-01-23T08:19:55.196Z,29.80
2023-01-23T08:22:21.906Z,36.80
2023-01-23T08:24:48.793Z,27.25
2023-01-23T08:27:15.448Z,25.75
2023-01-23T08:29:42.150Z,25.15
2023-01-23T08:32:08.943Z,24.40
2023-01-23T08:34:35.841Z,24.73
2023-01-23T08:37:02.498Z,24.95
2023-01-23T08:39:29.259Z,24.25
2023-01-23T08:41:55.985Z,24.48
2023-01-23T08:44:24.019Z,24.98
2023-01-23T08:46:50.727Z,24.25
2023-01-23T08:49:20.179Z,24.95
2023-01-23T08:51:47.122Z,25.30
2023-01-23T08:54:13.912Z,24.65
2023-01-23T08:56:41.325Z,24.45
2023-01-23T08:59:08.879Z,23.77
2023-01-23T09:01:35.676Z,24.35
2023-01-23T09:04:02.363Z,23.50
2023-01-23T09:06:29.109Z,22.95
2023-01-23T09:08:56.621Z,21.88
2023-01-23T09:11:23.825Z,21.52
2023-01-23T09:13:53.802Z,22.23
2023-01-23T09:16:20.815Z,22.10
2023-01-23T09:18:47.604Z,21.48
2023-01-23T09:21:16.779Z,20.23
2023-01-23T09:23:43.771Z,20.92
2023-01-23T09:26:13.240Z,21.98
2023-01-23T09:28:42.454Z,21.13
2023-01-23T09:31:11.883Z,21.23
2023-01-23T09:33:38.902Z,31.50
2023-01-23T09:36:05.970Z,23.75
2023-01-23T09:38:34.267Z,21.30
2023-01-23T09:41:19.017Z,21.55
2023-01-23T09:44:07.726Z,20.98
2023-01-23T09:47:02.236Z,22.45
2023-01-23T09:49:37.271Z,22.67
2023-01-23T09:52:27.449Z,20.52
2023-01-23T09:55:02.150Z,22.80
2023-01-23T09:57:35.537Z,22.38
2023-01-23T10:00:11.556Z,22.05
2023-01-23T10:02:38.527Z,21.98
2023-01-23T10:05:12.794Z,22.20
2023-01-23T10:08:07.405Z,21.35
2023-01-23T10:10:59.241Z,21.52
2023-01-23T10:14:04.342Z,20.95
2023-01-23T10:19:20.317Z,22.05
2023-01-23T10:22:23.023Z,20.52
2023-01-23T10:24:53.364Z,20.83
2023-01-23T10:27:22.833Z,21.48
2023-01-23T10:30:00.685Z,21.63
2023-01-23T10:32:29.902Z,21.20
2023-01-23T10:35:47.201Z,21.15
2023-01-23T10:38:47.927Z,21.40
2023-01-23T10:41:23.474Z,20.65
2023-01-23T10:43:52.931Z,21.05
2023-01-23T10:46:41.407Z,19.23
2023-01-23T10:49:08.056Z,19.25
2023-01-23T10:51:37.600Z,20.13
2023-01-23T10:54:30.912Z,18.92
2023-01-23T10:57:29.918Z,19.45
2023-01-23T11:00:04.271Z,18.73
2023-01-23T11:02:34.195Z,19.60
2023-01-23T11:05:01.965Z,18.73
2023-01-23T11:07:53.593Z,18.17
2023-01-23T11:10:23.288Z,18.38
2023-01-23T11:12:55.096Z,18.73
2023-01-23T11:15:23.712Z,19.13
2023-01-23T11:17:55.127Z,18.52
2023-01-23T11:20:30.007Z,18.63
2023-01-23T11:23:10.693Z,18.30
2023-01-23T11:25:43.051Z,18.75
2023-01-23T11:28:23.589Z,18.38
2023-01-23T11:31:15.536Z,17.38
2023-01-23T11:33:52.543Z,17.67
2023-01-23T11:36:26.966Z,17.73
2023-01-23T11:39:09.187Z,18.63
2023-01-23T11:41:36.337Z,17.23
2023-01-23T11:44:10.012Z,18.38
2023-01-23T11:46:59.779Z,17.58
2023-01-23T11:49:51.453Z,17.63
2023-01-23T11:52:34.537Z,17.45
2023-01-23T11:55:13.466Z,16.20
2023-01-23T11:57:49.249Z,16.83
2023-01-23T12:00:57.853Z,17.08
2023-01-23T12:03:41.055Z,17.92
2023-01-23T12:06:44.952Z,17.08
2023-01-23T12:09:16.550Z,18.15
2023-01-23T12:12:00.886Z,19.55
2023-01-23T12:14:36.163Z,17.02
2023-01-23T12:17:18.246Z,16.98
2023-01-23T12:20:01.787Z,16.02
2023-01-23T12:22:51.529Z,18.03
2023-01-23T12:25:39.510Z,15.73
2023-01-23T12:28:17.309Z,15.43
2023-01-23T12:31:06.344Z,16.70
2023-01-23T12:33:45.556Z,16.58
2023-01-23T12:36:30.826Z,16.35
2023-01-23T12:39:17.225Z,16.85
2023-01-23T12:42:03.511Z,15.60
2023-01-23T12:44:50.478Z,16.85
2023-01-23T12:47:23.311Z,16.17
2023-01-23T12:49:58.479Z,14.82
2023-01-23T12:52:43.333Z,16.13
2023-01-23T12:55:22.200Z,15.95
2023-01-23T12:58:00.030Z,14.50
2023-01-23T13:00:48.897Z,14.77
2023-01-23T13:03:22.793Z,14.02
2023-01-23T13:05:58.834Z,14.07
2023-01-23T13:08:56.326Z,14.35
2023-01-23T13:11:47.786Z,13.73
2023-01-23T13:14:36.876Z,13.20
2023-01-23T13:17:43.450Z,13.57
2023-01-23T13:20:42.473Z,13.27
2023-01-23T13:23:45.331Z,12.65
2023-01-23T13:26:23.120Z,12.52
2023-01-23T13:28:57.728Z,13.35
2023-01-23T13:31:35.060Z,12.27
2023-01-23T13:34:22.984Z,11.93
2023-01-23T13:36:54.317Z,12.60
2023-01-23T13:39:30.282Z,12.48
2023-01-23T13:42:15.096Z,12.35
2023-01-23T13:45:15.965Z,12.60
2023-01-23T14:22:15.047Z,12.05
2023-01-23T14:24:54.921Z,12.43
2023-01-23T14:27:31.649Z,11.32
2023-01-23T14:30:19.894Z,12.05
2023-01-23T14:32:46.896Z,12.77
2023-01-23T14:35:27.432Z,11.23
2023-01-23T14:37:59.773Z,11.75
2023-01-23T14:40:33.225Z,12.35
2023-01-23T14:43:07.889Z,12.23
2023-01-23T14:45:37.151Z,11.57
2023-01-23T14:48:07.717Z,11.35
2023-01-23T14:50:35.298Z,11.90
2023-01-23T14:53:07.645Z,11.65
2023-01-23T14:55:41.064Z,11.38
2023-01-23T14:58:18.581Z,11.38
2023-01-23T15:00:46.345Z,11.13
2023-01-23T15:03:33.001Z,10.45
2023-01-23T15:06:00.102Z,10.52
2023-01-23T15:08:32.219Z,10.90
2023-01-23T15:11:01.688Z,12.85
2023-01-23T15:13:51.236Z,12.25
2023-01-23T15:16:29.045Z,11.73
2023-01-23T15:19:02.897Z,13.38
2023-01-23T15:21:39.587Z,13.15
2023-01-23T15:24:09.056Z,14.00
2023-01-23T15:26:37.986Z,36.22
2023-01-23T15:29:26.756Z,83.40
2023-01-23T15:31:57.847Z,63.25
2023-01-23T15:34:30.738Z,26.15
2023-01-23T15:37:22.654Z,23.05
2023-01-23T15:39:50.799Z,12.98
2023-01-23T15:42:17.509Z,13.73
2023-01-23T15:44:44.872Z,12.45
2023-01-23T15:47:11.637Z,11.52
2023-01-23T15:49:40.422Z,12.07
2023-01-23T15:52:44.283Z,11.00
2023-01-23T15:55:11.427Z,10.02
2023-01-23T15:57:38.105Z,10.98
2023-01-23T16:00:20.518Z,11.27
2023-01-23T16:02:56.229Z,11.40
2023-01-23T16:05:26.532Z,11.25
2023-01-23T16:07:54.632Z,15.13
2023-01-23T16:10:30.389Z,12.95
2023-01-23T16:12:58.364Z,12.57
2023-01-23T16:15:30.794Z,12.13
2023-01-23T16:17:57.574Z,12.85
2023-01-23T16:20:34.674Z,13.82
2023-01-23T16:23:14.166Z,13.32
2023-01-23T16:25:46.196Z,12.30
2023-01-23T16:28:14.992Z,12.75
2023-01-23T16:30:41.744Z,12.90
2023-01-23T16:33:08.856Z,11.63
2023-01-23T16:35:35.922Z,12.15
2023-01-23T16:38:02.693Z,12.07
2023-01-23T16:40:33.771Z,12.07
2023-01-23T16:43:02.795Z,12.98
2023-01-23T16:45:32.004Z,12.85
2023-01-23T16:47:59.149Z,12.18
2023-01-23T16:50:36.593Z,12.88
2023-01-23T16:53:05.614Z,12.48
2023-01-23T16:55:39.758Z,12.73
2023-01-23T17:00:35.617Z,13.27
2023-01-23T17:03:07.457Z,13.27
2023-01-23T17:05:34.107Z,13.23
2023-01-23T17:08:00.860Z,13.40
2023-01-23T17:10:41.151Z,13.43
2023-01-23T17:15:40.171Z,13.00
2023-01-23T17:18:06.868Z,13.05
2023-01-23T17:20:33.556Z,14.35
2023-01-23T17:23:00.252Z,12.80
2023-01-23T17:25:27.397Z,13.02
2023-01-23T17:28:11.543Z,13.48
2023-01-23T17:30:40.248Z,12.93
2023-01-23T17:33:18.484Z,13.45
2023-01-23T17:35:45.864Z,13.65
2023-01-23T17:38:24.817Z,14.82
2023-01-23T17:40:52.469Z,14.30
2023-01-23T17:43:20.701Z,13.30
2023-01-23T17:45:50.109Z,14.60
2023-01-23T17:48:22.735Z,14.70
2023-01-23T17:50:49.402Z,13.82
2023-01-23T17:53:17.822Z,15.55
2023-01-23T17:55:48.563Z,14.25
2023-01-23T17:58:15.667Z,14.43
2023-01-23T18:00:44.166Z,14.50
2023-01-23T18:03:14.875Z,14.07
2023-01-23T18:05:41.520Z,16.98
2023-01-23T18:08:13.739Z,14.55
2023-01-23T18:10:41.107Z,15.02
2023-01-23T18:13:29.493Z,17.73
2023-01-23T18:16:15.588Z,17.10
2023-01-23T18:18:43.065Z,20.38
2023-01-23T18:21:15.050Z,15.68
2023-01-23T18:23:42.183Z,29.67
2023-01-23T18:26:33.695Z,16.05
2023-01-23T18:29:00.458Z,13.35
2023-01-23T18:32:09.555Z,14.07
2023-01-23T18:34:42.239Z,15.00
2023-01-23T18:37:33.069Z,14.70
2023-01-23T18:40:40.304Z,13.70
2023-01-23T18:43:21.818Z,14.63
2023-01-23T18:45:48.862Z,14.85
2023-01-23T18:48:25.036Z,13.40
2023-01-23T18:51:08.505Z,13.65
2023-01-23T18:53:43.151Z,14.82
2023-01-23T18:56:29.512Z,13.82
2023-01-23T18:59:10.973Z,14.40
2023-01-23T19:01:53.115Z,14.38
2023-01-23T19:04:30.435Z,17.13
2023-01-23T19:06:58.254Z,17.77
2023-01-23T19:09:26.860Z,17.83
2023-01-23T19:12:25.030Z,16.67
2023-01-23T19:15:22.010Z,13.40
2023-01-23T19:17:55.889Z,13.55
2023-01-23T19:20:42.198Z,13.95
2023-01-23T19:23:30.330Z,15.77
2023-01-23T19:25:57.515Z,15.05
2023-01-23T19:28:24.413Z,15.73
2023-01-23T19:30:51.376Z,14.15
2023-01-23T19:33:19.547Z,14.35
2023-01-23T19:35:47.719Z,13.60
2023-01-23T19:38:17.916Z,13.55
2023-01-23T19:40:45.830Z,13.18
2023-01-23T19:43:16.872Z,14.52
2023-01-23T19:45:44.782Z,14.38
2023-01-23T19:48:12.160Z,14.32
2023-01-23T19:50:39.486Z,13.45
2023-01-23T19:53:06.541Z,13.95
2023-01-23T19:55:36.188Z,15.43
2023-01-23T19:58:03.010Z,14.60
2023-01-23T20:00:33.075Z,14.23
2023-01-23T20:02:59.798Z,14.27
2023-01-23T20:05:27.085Z,14.60
2023-01-23T20:07:54.129Z,14.27
2023-01-23T20:10:21.623Z,14.20
2023-01-23T20:12:55.290Z,14.18
2023-01-23T20:15:23.958Z,13.75
2023-01-23T20:17:52.444Z,13.43
2023-01-23T20:20:19.880Z,15.35
2023-01-23T20:22:46.938Z,14.43
2023-01-23T20:25:15.944Z,14.38
2023-01-23T20:27:43.344Z,13.98
2023-01-23T20:30:17.623Z,14.70
2023-01-23T20:35:11.373Z,14.02
2023-01-23T20:37:38.099Z,14.10
2023-01-23T20:40:05.370Z,15.27
2023-01-23T20:42:33.400Z,14.85
2023-01-23T20:45:00.170Z,14.23
2023-01-23T20:47:26.950Z,14.43
2023-01-23T20:49:53.600Z,14.70
2023-01-23T20:52:38.746Z,14.98
2023-01-23T20:55:05.787Z,14.07
2023-01-23T20:57:51.106Z,13.60
2023-01-23T21:00:18.338Z,13.80
2023-01-23T21:02:45.047Z,14.40
2023-01-23T21:05:11.770Z,14.35
2023-01-23T21:07:38.544Z,14.90
2023-01-23T21:10:05.676Z,13.70
2023-01-23T21:12:32.458Z,14.93
2023-01-23T21:15:00.372Z,14.93
2023-01-23T21:17:27.747Z,15.27
2023-01-23T21:19:54.451Z,14.23
2023-01-23T21:22:21.193Z,13.95
2023-01-23T21:24:47.958Z,14.70
2023-01-23T21:27:14.750Z,14.40
2023-01-23T21:29:41.462Z,14.93
2023-01-23T21:32:08.378Z,13.93
2023-01-23T21:34:35.170Z,14.30
2023-01-23T21:37:03.333Z,15.13
2023-01-23T21:39:30.044Z,13.98
2023-01-23T21:41:56.785Z,13.73
2023-01-23T21:44:23.563Z,15.15
2023-01-23T21:46:50.321Z,14.73
2023-01-23T21:49:17.106Z,24.92
2023-01-23T21:51:44.840Z,36.85
2023-01-23T21:54:11.605Z,44.20
2023-01-23T21:56:38.476Z,34.65
2023-01-23T21:59:05.338Z,19.00
2023-01-23T22:01:32.493Z,15.15
2023-01-23T22:04:05.459Z,14.40
2023-01-23T22:06:33.656Z,15.30
2023-01-23T22:09:00.549Z,14.45
2023-01-23T22:11:27.780Z,14.55
2023-01-23T22:13:54.766Z,14.18
2023-01-23T22:16:31.882Z,14.43
2023-01-23T22:19:07.307Z,14.10
2023-01-23T22:21:34.233Z,14.85
2023-01-23T22:24:01.397Z,14.88
2023-01-23T22:26:28.310Z,15.80
2023-01-23T22:28:55.115Z,14.60
2023-01-23T22:31:22.008Z,14.90
2023-01-23T22:33:49.218Z,14.98
2023-01-23T22:36:19.367Z,14.55
2023-01-23T22:38:53.655Z,16.15
2023-01-23T22:41:20.910Z,13.98
2023-01-23T22:43:55.628Z,16.35
2023-01-23T22:46:23.442Z,15.60
2023-01-23T22:48:50.623Z,15.57
2023-01-23T22:51:25.472Z,15.02
2023-01-23T22:53:53.858Z,15.13
2023-01-23T22:56:21.340Z,14.20
2023-01-23T22:58:49.328Z,14.68
2023-01-23T23:01:16.578Z,14.05
2023-01-23T23:03:43.676Z,15.63
2023-01-23T23:06:14.494Z,15.55
2023-01-23T23:08:41.750Z,15.98
2023-01-23T23:11:14.071Z,14.18
2023-01-23T23:13:41.171Z,16.17
2023-01-23T23:16:14.540Z,15.65
2023-01-23T23:18:41.634Z,16.15
2023-01-23T23:21:11.350Z,15.93
2023-01-23T23:23:38.980Z,15.75
2023-01-23T23:26:09.702Z,15.77
2023-01-23T23:28:37.722Z,15.45
2023-01-23T23:31:05.668Z,15.02
2023-01-23T23:33:32.429Z,15.43
2023-01-23T23:35:59.325Z,15.52
2023-01-23T23:38:25.986Z,15.27
2023-01-23T23:41:01.314Z,16.05
2023-01-23T23:43:28.896Z,14.88
2023-01-23T23:46:01.166Z,15.20
2023-01-23T23:48:29.241Z,15.15
2023-01-23T23:50:56.232Z,14.77
2023-01-23T23:53:23.271Z,15.75
2023-01-23T23:55:50.075Z,16.27
2023-01-23T23:58:17.071Z,16.23
